createdAt,value
2019-02-28T00:01:00.249Z,0.80
2019-02-28T00:03:29.310Z,0.90
2019-02-28T00:05:58.234Z,0.90
2019-02-28T00:08:27.138Z,0.90
2019-02-28T00:10:55.997Z,0.80
2019-02-28T00:13:24.882Z,0.80
2019-02-28T00:15:53.800Z,0.70
2019-02-28T00:18:22.694Z,0.60
2019-02-28T00:20:51.568Z,0.60
2019-02-28T00:23:21.951Z,0.60
2019-02-28T00:25:50.963Z,0.70
2019-02-28T00:28:19.840Z,0.70
2019-02-28T00:30:48.746Z,0.60
2019-02-28T00:33:17.581Z,0.50
2019-02-28T00:35:46.464Z,0.40
2019-02-28T00:38:15.349Z,0.40
2019-02-28T00:40:45.122Z,0.40
2019-02-28T00:43:13.980Z,0.30
2019-02-28T00:45:42.887Z,0.30
2019-02-28T00:48:11.753Z,0.30
2019-02-28T00:50:40.606Z,0.30
2019-02-28T00:53:09.514Z,0.30
2019-02-28T00:55:38.461Z,0.30
2019-02-28T00:58:07.335Z,0.30
2019-02-28T01:00:37.004Z,0.30
2019-02-28T01:03:06.932Z,0.20
2019-02-28T01:05:36.608Z,0.20
2019-02-28T01:08:06.261Z,0.10
2019-02-28T01:10:38.946Z,0.10
2019-02-28T01:13:05.641Z,0.10
2019-02-28T01:15:34.555Z,0.30
2019-02-28T01:18:03.534Z,0.20
2019-02-28T01:20:32.392Z,0.20
2019-02-28T01:23:01.281Z,0.10
2019-02-28T01:25:30.148Z,0.10
2019-02-28T01:27:58.959Z,0.00
2019-02-28T01:30:27.862Z,-0.10
2019-02-28T01:32:56.730Z,-0.10
2019-02-28T01:35:25.602Z,-0.10
2019-02-28T01:37:54.511Z,-0.20
2019-02-28T01:40:23.395Z,-0.10
2019-02-28T01:42:54.827Z,-0.20
2019-02-28T01:45:23.660Z,-0.20
2019-02-28T01:47:52.530Z,-0.20
2019-02-28T01:50:21.373Z,-0.20
2019-02-28T01:52:50.301Z,-0.20
2019-02-28T01:55:19.156Z,-0.10
2019-02-28T01:57:48.006Z,-0.10
2019-02-28T02:03:01.256Z,-0.20
2019-02-28T02:05:30.104Z,-0.20
2019-02-28T02:07:59.213Z,-0.20
2019-02-28T02:10:28.117Z,-0.20
2019-02-28T02:12:56.992Z,-0.30
2019-02-28T02:15:25.831Z,-0.30
2019-02-28T02:17:54.745Z,-0.30
2019-02-28T02:20:26.237Z,-0.30
2019-02-28T02:22:54.092Z,-0.40
2019-02-28T02:25:23.017Z,-0.50
2019-02-28T02:27:53.335Z,-0.60
2019-02-28T02:30:23.973Z,-0.50
2019-02-28T02:32:52.901Z,-0.50
2019-02-28T02:35:21.776Z,-0.50
2019-02-28T02:37:50.608Z,-0.50
2019-02-28T02:40:22.929Z,-0.50
2019-02-28T02:42:50.196Z,-0.50
2019-02-28T02:45:19.150Z,-0.50
2019-02-28T02:47:48.035Z,-0.50
2019-02-28T02:50:16.893Z,-0.50
2019-02-28T02:52:45.746Z,-0.60
2019-02-28T02:55:19.592Z,-0.60
2019-02-28T02:57:51.779Z,-0.60
2019-02-28T03:00:19.747Z,-0.70
2019-02-28T03:02:48.648Z,-0.70
2019-02-28T03:05:17.506Z,-0.70
2019-02-28T03:07:46.353Z,-0.50
2019-02-28T03:10:19.794Z,-0.40
2019-02-28T03:12:48.906Z,-0.30
2019-02-28T03:15:24.834Z,-0.40
2019-02-28T03:17:49.532Z,-0.40
2019-02-28T03:20:18.403Z,-0.50
2019-02-28T03:22:47.254Z,-0.60
2019-02-28T03:25:19.116Z,-0.70
2019-02-28T03:27:55.065Z,-0.70
2019-02-28T03:30:27.698Z,-0.50
2019-02-28T03:32:51.029Z,-0.60
2019-02-28T03:35:19.892Z,-0.70
2019-02-28T03:37:48.745Z,-0.80
2019-02-28T03:40:17.639Z,-0.80
2019-02-28T03:42:46.478Z,-0.80
2019-02-28T03:45:16.890Z,-0.80
2019-02-28T03:47:45.811Z,-0.80
2019-02-28T03:50:14.761Z,-0.80
2019-02-28T03:52:44.710Z,-0.70
2019-02-28T03:55:14.938Z,-0.70
2019-02-28T03:57:43.810Z,-0.70
2019-02-28T04:00:18.292Z,-0.70
2019-02-28T04:02:47.160Z,-0.90
2019-02-28T04:05:16.012Z,-0.90
2019-02-28T04:07:52.263Z,-0.90
2019-02-28T04:10:16.610Z,-1.00
2019-02-28T04:12:47.141Z,-1.00
2019-02-28T04:15:20.273Z,-1.10
2019-02-28T04:17:49.094Z,-1.10
2019-02-28T04:20:17.938Z,-1.20
2019-02-28T04:22:46.842Z,-1.20
2019-02-28T04:25:22.839Z,-1.20
2019-02-28T04:27:46.201Z,-1.20
2019-02-28T04:30:17.793Z,-1.20
2019-02-28T04:32:46.637Z,-1.10
2019-02-28T04:35:15.583Z,-1.00
2019-02-28T04:37:46.924Z,-0.90
2019-02-28T04:40:15.016Z,-0.80
2019-02-28T04:42:43.868Z,-0.90
2019-02-28T04:45:13.858Z,-0.90
2019-02-28T04:47:42.716Z,-1.00
2019-02-28T04:50:13.079Z,-1.10
2019-02-28T04:52:46.480Z,-1.20
2019-02-28T04:55:12.572Z,-1.30
2019-02-28T04:57:41.687Z,-1.20
2019-02-28T05:00:21.067Z,-1.10
2019-02-28T05:02:53.709Z,-1.00
2019-02-28T05:05:20.420Z,-1.00
2019-02-28T05:07:49.311Z,-1.00
2019-02-28T05:10:19.198Z,-1.00
2019-02-28T05:12:48.668Z,-1.10
2019-02-28T05:15:17.553Z,-1.20
2019-02-28T05:17:46.410Z,-1.20
2019-02-28T05:20:15.246Z,-1.20
2019-02-28T05:22:44.166Z,-1.20
2019-02-28T05:25:17.633Z,-1.20
2019-02-28T05:27:43.618Z,-1.10
2019-02-28T05:30:17.914Z,-1.00
2019-02-28T05:32:45.001Z,-0.90
2019-02-28T05:35:13.860Z,-0.90
2019-02-28T05:37:46.672Z,-0.90
2019-02-28T05:40:15.550Z,-0.90
2019-02-28T05:42:44.398Z,-0.90
2019-02-28T05:45:14.670Z,-1.00
2019-02-28T05:47:46.882Z,-0.90
2019-02-28T05:50:16.643Z,-0.80
2019-02-28T05:52:45.474Z,-0.80
2019-02-28T05:55:14.442Z,-0.80
2019-02-28T05:57:44.666Z,-0.70
2019-02-28T06:00:17.444Z,-0.70
2019-02-28T06:02:46.305Z,-0.50
2019-02-28T06:05:15.255Z,-0.30
2019-02-28T06:07:44.181Z,-0.30
2019-02-28T06:10:16.594Z,-0.30
2019-02-28T06:12:45.475Z,-0.30
2019-02-28T06:15:17.498Z,-0.30
2019-02-28T06:17:46.350Z,-0.30
2019-02-28T06:20:17.850Z,-0.20
2019-02-28T06:22:45.744Z,-0.20
2019-02-28T06:25:22.180Z,-0.20
2019-02-28T06:27:49.437Z,-0.20
2019-02-28T06:30:17.431Z,-0.10
2019-02-28T06:32:46.380Z,0.00
2019-02-28T06:35:17.651Z,0.10
2019-02-28T06:37:45.780Z,0.30
2019-02-28T06:40:15.427Z,0.30
2019-02-28T06:42:46.741Z,0.40
2019-02-28T06:45:16.112Z,0.50
2019-02-28T06:47:48.179Z,0.60
2019-02-28T06:50:16.289Z,0.70
2019-02-28T06:52:45.217Z,0.90
2019-02-28T06:55:16.599Z,1.10
2019-02-28T06:57:45.487Z,1.40
2019-02-28T07:00:15.888Z,1.50
2019-02-28T07:02:44.742Z,1.60
2019-02-28T07:05:13.603Z,1.80
2019-02-28T07:07:45.595Z,2.00
2019-02-28T07:10:14.665Z,2.10
2019-02-28T07:12:43.970Z,2.20
2019-02-28T07:15:13.369Z,2.40
2019-02-28T07:17:42.598Z,2.50
2019-02-28T07:20:17.712Z,2.50
2019-02-28T07:22:46.582Z,2.40
2019-02-28T07:25:15.424Z,2.50
2019-02-28T07:27:44.341Z,2.60
2019-02-28T07:30:18.520Z,4.90
2019-02-28T07:32:48.517Z,8.30
2019-02-28T07:35:18.027Z,10.90
2019-02-28T07:37:46.922Z,12.20
2019-02-28T07:40:17.934Z,14.40
2019-02-28T07:42:47.013Z,16.10
2019-02-28T07:45:16.279Z,16.50
2019-02-28T07:47:45.241Z,17.50
2019-02-28T07:50:17.682Z,18.80
2019-02-28T07:52:46.633Z,19.00
2019-02-28T07:55:17.070Z,19.50
2019-02-28T07:57:51.202Z,20.30
2019-02-28T08:00:20.738Z,20.70
2019-02-28T08:02:49.582Z,20.60
2019-02-28T08:05:18.488Z,20.80
2019-02-28T08:07:52.129Z,20.90
2019-02-28T08:10:23.857Z,20.80
2019-02-28T08:12:52.701Z,21.20
2019-02-28T08:15:23.298Z,21.10
2019-02-28T08:17:52.381Z,21.30
2019-02-28T08:20:21.645Z,21.70
2019-02-28T08:22:50.513Z,22.20
2019-02-28T08:25:19.404Z,22.60
2019-02-28T08:27:48.273Z,22.70
2019-02-28T08:30:25.311Z,22.60
2019-02-28T08:32:54.163Z,22.50
2019-02-28T08:35:23.019Z,22.50
2019-02-28T08:37:56.165Z,23.10
2019-02-28T08:40:26.527Z,23.50
2019-02-28T08:42:54.438Z,24.00
2019-02-28T08:45:23.426Z,24.10
2019-02-28T08:47:55.412Z,23.80
2019-02-28T08:50:24.747Z,23.60
2019-02-28T08:52:59.294Z,23.80
2019-02-28T08:55:29.283Z,24.90
2019-02-28T08:58:04.952Z,26.10
2019-02-28T09:00:32.953Z,26.70
2019-02-28T09:03:00.988Z,27.00
2019-02-28T09:05:31.391Z,26.90
2019-02-28T09:08:00.297Z,27.00
2019-02-28T09:10:29.139Z,27.80
2019-02-28T09:12:58.000Z,27.40
2019-02-28T09:15:29.871Z,26.50
2019-02-28T09:17:59.468Z,26.50
2019-02-28T09:20:29.098Z,25.80
2019-02-28T09:23:02.210Z,25.90
2019-02-28T09:25:29.336Z,26.20
2019-02-28T09:27:58.182Z,27.00
2019-02-28T09:30:38.714Z,27.90
2019-02-28T09:33:07.587Z,29.20
2019-02-28T09:35:36.444Z,29.30
2019-02-28T09:38:07.653Z,28.90
2019-02-28T09:40:36.602Z,28.80
2019-02-28T09:43:07.071Z,27.90
2019-02-28T09:45:36.059Z,27.80
2019-02-28T09:48:04.983Z,27.60
2019-02-28T09:50:33.815Z,29.00
2019-02-28T09:53:03.121Z,28.90
2019-02-28T09:55:35.312Z,28.70
2019-02-28T09:58:02.532Z,28.30
2019-02-28T10:00:31.519Z,28.50
2019-02-28T10:03:00.391Z,28.20
2019-02-28T10:05:29.235Z,28.70
2019-02-28T10:08:01.668Z,29.50
2019-02-28T10:10:30.131Z,29.60
2019-02-28T10:12:58.967Z,29.30
2019-02-28T10:15:27.906Z,29.30
2019-02-28T10:17:56.743Z,29.90
2019-02-28T10:20:39.373Z,29.50
2019-02-28T10:23:08.266Z,26.70
2019-02-28T10:25:40.959Z,23.90
2019-02-28T10:28:07.595Z,21.90
2019-02-28T10:30:36.550Z,20.30
2019-02-28T10:33:05.387Z,19.50
2019-02-28T10:35:36.742Z,18.80
2019-02-28T10:38:04.820Z,18.40
2019-02-28T10:40:33.772Z,18.40
2019-02-28T10:43:02.660Z,18.40
2019-02-28T10:45:31.518Z,18.30
2019-02-28T10:48:03.225Z,18.00
2019-02-28T10:50:33.658Z,17.80
2019-02-28T10:53:05.558Z,17.80
2019-02-28T10:55:33.748Z,17.90
2019-02-28T10:58:03.078Z,17.80
2019-02-28T11:00:38.122Z,17.60
2019-02-28T11:03:07.424Z,17.40
2019-02-28T11:05:38.895Z,17.50
2019-02-28T11:08:09.650Z,17.70
2019-02-28T11:10:40.975Z,17.90
2019-02-28T11:13:18.210Z,17.90
2019-02-28T11:15:48.305Z,17.80
2019-02-28T11:18:17.858Z,17.60
2019-02-28T11:20:46.892Z,17.50
2019-02-28T11:23:16.021Z,17.50
2019-02-28T11:25:45.133Z,17.60
2019-02-28T11:28:14.831Z,17.70
2019-02-28T11:30:46.232Z,17.70
2019-02-28T11:33:16.377Z,17.70
2019-02-28T11:35:45.500Z,17.70
2019-02-28T11:38:20.527Z,17.70
2019-02-28T11:40:45.336Z,17.80
2019-02-28T11:43:14.514Z,17.80
2019-02-28T11:45:48.056Z,17.70
2019-02-28T11:48:20.445Z,17.70
2019-02-28T11:50:49.478Z,17.80
2019-02-28T11:53:19.158Z,17.90
2019-02-28T11:55:48.485Z,17.80
2019-02-28T11:58:18.076Z,17.90
2019-02-28T12:00:47.194Z,18.00
2019-02-28T12:03:16.079Z,18.10
2019-02-28T12:05:50.167Z,18.30
2019-02-28T12:08:15.477Z,18.40
2019-02-28T12:10:44.332Z,18.50
2019-02-28T12:13:13.195Z,18.70
2019-02-28T12:15:42.506Z,18.70
2019-02-28T12:18:11.361Z,18.80
2019-02-28T12:20:40.204Z,18.70
2019-02-28T12:23:09.100Z,18.70
2019-02-28T12:25:39.608Z,18.80
2019-02-28T12:28:08.454Z,18.90
2019-02-28T12:30:37.544Z,19.10
2019-02-28T12:33:06.383Z,19.10
2019-02-28T12:35:40.001Z,19.10
2019-02-28T12:38:06.097Z,19.30
2019-02-28T12:40:42.513Z,19.20
2019-02-28T12:43:14.616Z,19.00
2019-02-28T12:45:47.255Z,18.90
2019-02-28T12:48:15.852Z,19.00
2019-02-28T12:50:44.737Z,19.10
2019-02-28T12:53:13.577Z,19.20
2019-02-28T12:55:42.411Z,19.30
2019-02-28T12:58:11.331Z,19.40
2019-02-28T13:00:42.739Z,19.50
2019-02-28T13:03:11.896Z,19.40
2019-02-28T13:05:40.981Z,19.20
2019-02-28T13:08:09.939Z,19.30
2019-02-28T13:10:38.815Z,19.30
2019-02-28T13:13:08.035Z,19.30
2019-02-28T13:15:37.052Z,19.20
2019-02-28T13:18:08.852Z,19.20
2019-02-28T13:20:40.000Z,19.10
2019-02-28T13:23:08.869Z,19.10
2019-02-28T13:25:37.710Z,19.20
2019-02-28T13:28:07.907Z,19.30
2019-02-28T13:30:39.998Z,19.30
2019-02-28T13:33:11.012Z,19.40
2019-02-28T13:35:45.166Z,19.50
2019-02-28T13:38:17.689Z,19.70
2019-02-28T13:40:44.775Z,19.60
2019-02-28T13:43:19.993Z,19.50
2019-02-28T13:45:43.380Z,19.50
2019-02-28T13:48:12.293Z,19.40
2019-02-28T13:50:41.156Z,19.40
2019-02-28T13:53:18.533Z,19.40
2019-02-28T13:55:40.972Z,19.40
2019-02-28T13:58:09.817Z,19.30
2019-02-28T14:00:43.685Z,19.50
2019-02-28T14:03:13.377Z,19.60
2019-02-28T14:05:42.205Z,19.70
2019-02-28T14:08:12.231Z,19.70
2019-02-28T14:10:41.754Z,19.80
2019-02-28T14:13:10.719Z,19.80
2019-02-28T14:15:47.810Z,19.90
2019-02-28T14:18:15.439Z,20.10
2019-02-28T14:20:44.283Z,20.10
2019-02-28T14:23:13.149Z,20.00
2019-02-28T14:25:42.151Z,20.00
2019-02-28T14:28:11.105Z,19.80
2019-02-28T14:30:40.018Z,19.80
2019-02-28T14:33:09.307Z,20.00
2019-02-28T14:35:38.777Z,19.90
2019-02-28T14:38:07.907Z,19.90
2019-02-28T14:40:36.834Z,20.00
2019-02-28T14:43:05.773Z,19.90
2019-02-28T14:45:45.861Z,19.80
2019-02-28T14:48:14.708Z,19.90
2019-02-28T14:50:43.534Z,20.00
2019-02-28T14:53:14.274Z,20.00
2019-02-28T14:55:42.927Z,20.00
2019-02-28T14:58:11.770Z,20.00
2019-02-28T15:00:42.412Z,20.00
2019-02-28T15:03:11.355Z,20.00
2019-02-28T15:05:44.094Z,20.10
2019-02-28T15:08:15.512Z,20.20
2019-02-28T15:10:43.558Z,20.20
2019-02-28T15:13:12.508Z,20.10
2019-02-28T15:15:42.362Z,20.00
2019-02-28T15:18:13.117Z,19.90
2019-02-28T15:20:41.702Z,19.80
2019-02-28T15:23:10.598Z,19.70
2019-02-28T15:25:39.439Z,19.70
2019-02-28T15:28:10.683Z,19.80
2019-02-28T15:30:40.631Z,19.70
2019-02-28T15:33:09.471Z,19.60
2019-02-28T15:35:38.311Z,19.40
2019-02-28T15:38:09.177Z,19.20
2019-02-28T15:40:44.138Z,19.10
2019-02-28T15:43:16.862Z,18.90
2019-02-28T15:45:43.537Z,18.80
2019-02-28T15:48:12.378Z,18.70
2019-02-28T15:50:41.265Z,18.60
2019-02-28T15:53:11.296Z,18.40
2019-02-28T15:55:40.885Z,18.20
2019-02-28T15:58:09.906Z,18.10
2019-02-28T16:00:38.865Z,17.90
2019-02-28T16:03:07.716Z,17.80
2019-02-28T16:05:42.793Z,17.60
2019-02-28T16:08:10.360Z,17.40
2019-02-28T16:10:38.052Z,17.10
2019-02-28T16:13:07.705Z,16.90
2019-02-28T16:15:36.583Z,16.60
2019-02-28T16:18:08.848Z,16.40
2019-02-28T16:20:38.123Z,16.10
2019-02-28T16:23:06.821Z,15.80
2019-02-28T16:25:37.616Z,15.70
2019-02-28T16:28:08.857Z,15.60
2019-02-28T16:30:42.929Z,15.40
2019-02-28T16:33:11.739Z,15.10
2019-02-28T16:35:40.624Z,14.90
2019-02-28T16:38:10.953Z,14.70
2019-02-28T16:40:40.082Z,14.50
2019-02-28T16:43:08.935Z,14.60
2019-02-28T16:45:45.476Z,14.70
2019-02-28T16:48:14.341Z,15.10
2019-02-28T16:50:43.189Z,14.90
2019-02-28T16:53:16.160Z,14.60
2019-02-28T16:55:42.597Z,14.30
2019-02-28T16:58:11.454Z,14.10
2019-02-28T17:00:42.457Z,13.90
2019-02-28T17:03:10.970Z,13.90
2019-02-28T17:05:39.828Z,13.80
2019-02-28T17:08:08.837Z,13.60
2019-02-28T17:10:40.035Z,13.40
2019-02-28T17:13:28.401Z,13.20
2019-02-28T17:16:02.634Z,13.00
2019-02-28T17:18:34.645Z,13.00
2019-02-28T17:21:03.465Z,12.90
2019-02-28T17:23:33.712Z,12.80
2019-02-28T17:26:02.862Z,12.70
2019-02-28T17:28:49.751Z,12.90
2019-02-28T17:31:31.950Z,12.90
2019-02-28T17:34:00.808Z,12.80
2019-02-28T17:36:29.676Z,12.60
2019-02-28T17:38:58.577Z,12.40
2019-02-28T17:41:27.444Z,12.20
2019-02-28T17:44:23.350Z,12.00
2019-02-28T17:46:57.012Z,11.80
2019-02-28T17:50:05.512Z,11.60
2019-02-28T17:52:43.775Z,11.50
2019-02-28T17:55:33.053Z,11.50
2019-02-28T17:58:07.579Z,11.40
2019-02-28T18:00:48.230Z,11.20
2019-02-28T18:03:25.777Z,11.10
2019-02-28T18:06:00.198Z,10.90
2019-02-28T18:08:46.850Z,10.80
2019-02-28T18:11:21.609Z,10.70
2019-02-28T18:14:12.933Z,10.70
2019-02-28T18:17:02.924Z,10.60
2019-02-28T18:19:46.966Z,10.50
2019-02-28T18:22:35.393Z,10.40
2019-02-28T18:25:25.203Z,10.30
2019-02-28T18:28:05.850Z,10.00
2019-02-28T18:30:52.116Z,9.90
2019-02-28T18:33:21.007Z,9.90
2019-02-28T18:35:49.851Z,9.90
2019-02-28T18:38:18.696Z,9.80
2019-02-28T18:40:47.629Z,9.70
2019-02-28T18:43:16.466Z,9.50
2019-02-28T18:45:45.302Z,9.30
2019-02-28T18:48:14.676Z,9.20
2019-02-28T18:50:44.679Z,9.20
2019-02-28T18:53:13.523Z,9.10
2019-02-28T18:55:42.405Z,9.10
2019-02-28T18:58:11.267Z,9.00
2019-02-28T19:00:40.110Z,8.90
2019-02-28T19:03:09.348Z,8.90
2019-02-28T19:05:38.202Z,8.80
2019-02-28T19:08:07.047Z,8.80
2019-02-28T19:10:35.951Z,8.80
2019-02-28T19:13:04.802Z,8.80
2019-02-28T19:15:33.646Z,8.70
2019-02-28T19:18:02.559Z,8.70
2019-02-28T19:20:34.655Z,8.70
2019-02-28T19:23:03.514Z,8.70
2019-02-28T19:25:32.441Z,8.60
2019-02-28T19:28:02.094Z,8.50
2019-02-28T19:30:31.090Z,8.40
2019-02-28T19:32:59.937Z,8.30
2019-02-28T19:35:28.804Z,8.10
2019-02-28T19:37:57.653Z,8.10
2019-02-28T19:40:26.552Z,8.00
2019-02-28T19:42:55.394Z,7.90
2019-02-28T19:45:33.242Z,7.80
2019-02-28T19:48:02.087Z,7.80
2019-02-28T19:50:30.929Z,7.70
2019-02-28T19:52:59.820Z,7.50
2019-02-28T19:55:28.703Z,7.50
2019-02-28T19:57:57.519Z,7.50
2019-02-28T20:00:26.437Z,7.50
2019-02-28T20:02:55.243Z,7.50
2019-02-28T20:05:24.054Z,7.50
2019-02-28T20:07:53.171Z,7.50
2019-02-28T20:10:22.025Z,7.40
2019-02-28T20:12:50.870Z,7.30
2019-02-28T20:15:26.014Z,7.20
2019-02-28T20:17:54.882Z,7.20
2019-02-28T20:20:27.091Z,7.10
2019-02-28T20:22:57.601Z,7.00
2019-02-28T20:25:26.537Z,6.80
2019-02-28T20:27:56.158Z,6.70
2019-02-28T20:30:26.984Z,6.70
2019-02-28T20:32:56.214Z,6.70
2019-02-28T20:35:26.842Z,6.60
2019-02-28T20:37:55.614Z,6.50
2019-02-28T20:40:32.638Z,6.40
2019-02-28T20:43:01.737Z,6.40
2019-02-28T20:45:30.578Z,6.30
2019-02-28T20:47:59.437Z,6.40
2019-02-28T20:50:40.080Z,6.40
2019-02-28T20:53:08.926Z,6.40
2019-02-28T20:55:37.772Z,6.20
2019-02-28T20:58:06.830Z,6.20
2019-02-28T21:00:35.887Z,6.30
2019-02-28T21:03:05.062Z,6.30
2019-02-28T21:05:33.971Z,6.20
2019-02-28T21:08:02.898Z,6.10
2019-02-28T21:10:31.764Z,6.00
2019-02-28T21:13:00.656Z,6.00
2019-02-28T21:15:29.509Z,5.90
2019-02-28T21:17:58.301Z,5.80
2019-02-28T21:20:27.453Z,5.60
2019-02-28T21:22:56.338Z,5.60
2019-02-28T21:25:25.173Z,5.70
2019-02-28T21:27:54.079Z,5.70
2019-02-28T21:30:24.130Z,5.70
2019-02-28T21:32:52.957Z,5.50
2019-02-28T21:35:22.480Z,5.50
2019-02-28T21:37:51.355Z,5.40
2019-02-28T21:40:23.432Z,5.30
2019-02-28T21:42:52.385Z,5.30
2019-02-28T21:45:26.265Z,5.30
2019-02-28T21:47:55.144Z,5.30
2019-02-28T21:50:24.420Z,5.20
2019-02-28T21:52:53.262Z,5.30
2019-02-28T21:55:22.174Z,5.20
2019-02-28T21:57:51.074Z,5.20
2019-02-28T22:00:27.930Z,5.20
2019-02-28T22:02:56.848Z,5.20
2019-02-28T22:05:25.698Z,5.20
2019-02-28T22:07:54.556Z,5.20
2019-02-28T22:10:23.452Z,5.20
2019-02-28T22:12:52.300Z,5.10
2019-02-28T22:15:22.377Z,4.90
2019-02-28T22:17:51.259Z,4.80
2019-02-28T22:20:22.859Z,4.80
2019-02-28T22:22:51.698Z,4.80
2019-02-28T22:25:20.615Z,4.90
2019-02-28T22:27:49.457Z,5.00
2019-02-28T22:30:42.840Z,5.10
2019-02-28T22:33:25.287Z,5.10
2019-02-28T22:36:07.841Z,5.00
2019-02-28T22:38:36.708Z,5.00
2019-02-28T22:41:05.549Z,4.90
2019-02-28T22:43:34.481Z,4.80
2019-02-28T22:46:03.342Z,4.60
2019-02-28T22:48:32.179Z,4.50
2019-02-28T22:51:01.066Z,4.40
2019-02-28T22:53:29.926Z,4.40
2019-02-28T22:55:58.776Z,4.50
2019-02-28T22:58:27.663Z,4.50
2019-02-28T23:01:14.576Z,4.40
2019-02-28T23:03:43.243Z,4.30
2019-02-28T23:06:12.112Z,4.20
2019-02-28T23:08:40.975Z,4.20
2019-02-28T23:11:09.868Z,4.40
2019-02-28T23:13:38.721Z,4.40
2019-02-28T23:16:08.406Z,4.30
2019-02-28T23:18:37.461Z,4.20
2019-02-28T23:21:06.323Z,4.20
2019-02-28T23:23:35.154Z,4.30
2019-02-28T23:26:09.527Z,4.30
2019-02-28T23:28:44.761Z,4.30
2019-02-28T23:31:25.389Z,4.40
2019-02-28T23:34:01.322Z,4.30
2019-02-28T23:36:27.111Z,4.20
2019-02-28T23:38:56.000Z,4.00
2019-02-28T23:41:24.846Z,4.00
2019-02-28T23:43:53.699Z,4.00
2019-02-28T23:46:22.637Z,4.00
2019-02-28T23:48:51.474Z,4.00
2019-02-28T23:51:20.340Z,3.90
2019-02-28T23:53:49.212Z,3.90
2019-02-28T23:56:18.071Z,3.90
2019-02-28T23:58:46.927Z,3.90
